createdAt,value
2023-07-06T00:01:28.956Z,13.40
2023-07-06T00:03:55.982Z,13.50
2023-07-06T00:06:23.498Z,13.40
2023-07-06T00:08:50.553Z,13.40
2023-07-06T00:11:17.494Z,13.40
2023-07-06T00:13:44.458Z,13.40
2023-07-06T00:16:11.480Z,13.30
2023-07-06T00:18:38.370Z,13.30
2023-07-06T00:21:05.281Z,13.20
2023-07-06T00:23:32.182Z,13.20
2023-07-06T00:25:59.095Z,13.10
2023-07-06T00:28:26.235Z,13.10
2023-07-06T00:30:54.434Z,13.10
2023-07-06T00:33:23.430Z,13.10
2023-07-06T00:35:50.391Z,13.00
2023-07-06T00:38:19.703Z,13.00
2023-07-06T00:40:49.158Z,12.90
2023-07-06T00:43:24.956Z,12.90
2023-07-06T00:46:00.033Z,12.90
2023-07-06T00:48:34.670Z,12.80
2023-07-06T00:51:18.566Z,12.80
2023-07-06T00:53:51.766Z,12.80
2023-07-06T00:56:25.791Z,12.80
2023-07-06T00:58:57.728Z,12.70
2023-07-06T01:01:25.309Z,12.70
2023-07-06T01:03:57.208Z,12.70
2023-07-06T01:06:34.451Z,12.70
2023-07-06T01:09:02.399Z,12.60
2023-07-06T01:11:29.562Z,12.60
2023-07-06T01:13:56.613Z,12.50
2023-07-06T01:16:41.034Z,12.60
2023-07-06T01:19:25.928Z,12.50
2023-07-06T01:22:26.032Z,12.50
2023-07-06T01:25:12.912Z,12.50
2023-07-06T01:28:07.296Z,12.50
2023-07-06T01:30:49.192Z,12.40
2023-07-06T01:33:20.344Z,12.40
2023-07-06T01:36:05.666Z,12.40
2023-07-06T01:38:32.575Z,12.30
2023-07-06T01:40:59.477Z,12.30
2023-07-06T01:43:26.716Z,12.30
2023-07-06T01:45:54.344Z,12.30
2023-07-06T01:48:22.249Z,12.20
2023-07-06T01:51:14.907Z,12.20
2023-07-06T01:53:59.467Z,12.20
2023-07-06T01:56:44.751Z,12.30
2023-07-06T01:59:14.517Z,12.30
2023-07-06T02:01:48.605Z,12.30
2023-07-06T02:04:16.663Z,12.20
2023-07-06T02:06:44.669Z,12.20
2023-07-06T02:09:15.873Z,12.30
2023-07-06T02:11:42.742Z,12.20
2023-07-06T02:14:09.754Z,12.20
2023-07-06T02:16:36.652Z,12.10
2023-07-06T02:19:03.563Z,12.10
2023-07-06T02:21:30.653Z,12.10
2023-07-06T02:23:57.548Z,12.10
2023-07-06T02:26:24.571Z,12.00
2023-07-06T02:28:51.501Z,12.10
2023-07-06T02:31:18.503Z,12.00
2023-07-06T02:33:45.742Z,12.10
2023-07-06T02:36:12.661Z,12.00
2023-07-06T02:38:39.539Z,12.00
2023-07-06T02:41:06.436Z,11.90
2023-07-06T02:43:33.559Z,12.00
2023-07-06T02:46:01.158Z,11.90
2023-07-06T02:48:28.269Z,11.90
2023-07-06T02:50:55.154Z,11.90
2023-07-06T02:53:22.133Z,11.90
2023-07-06T02:55:49.906Z,11.90
2023-07-06T02:58:17.199Z,11.80
2023-07-06T03:00:44.118Z,11.80
2023-07-06T03:03:11.071Z,11.80
2023-07-06T03:05:38.640Z,11.70
2023-07-06T03:08:06.617Z,11.70
2023-07-06T03:10:33.674Z,11.80
2023-07-06T03:13:00.682Z,11.70
2023-07-06T03:15:27.663Z,11.70
2023-07-06T03:17:54.606Z,11.80
2023-07-06T03:20:21.878Z,11.80
2023-07-06T03:22:53.934Z,11.70
2023-07-06T03:25:23.330Z,11.70
2023-07-06T03:27:50.241Z,11.60
2023-07-06T03:30:23.097Z,11.70
2023-07-06T03:32:50.401Z,11.60
2023-07-06T03:35:17.517Z,11.70
2023-07-06T03:37:44.817Z,11.70
2023-07-06T03:40:12.916Z,11.70
2023-07-06T03:42:44.664Z,11.70
2023-07-06T03:45:14.253Z,11.70
2023-07-06T03:47:42.908Z,11.70
2023-07-06T03:50:11.501Z,11.80
2023-07-06T03:52:38.733Z,11.70
2023-07-06T03:55:18.935Z,11.80
2023-07-06T03:57:58.866Z,11.70
2023-07-06T04:00:26.167Z,11.80
2023-07-06T04:02:55.257Z,11.80
2023-07-06T04:05:31.628Z,11.80
2023-07-06T04:07:59.328Z,11.80
2023-07-06T04:10:26.458Z,11.90
2023-07-06T04:12:53.334Z,11.90
2023-07-06T04:15:20.276Z,12.00
2023-07-06T04:17:47.551Z,12.00
2023-07-06T04:20:23.000Z,12.00
2023-07-06T04:22:51.968Z,12.10
2023-07-06T04:25:18.891Z,12.10
2023-07-06T04:27:46.178Z,12.10
2023-07-06T04:30:13.897Z,12.10
2023-07-06T04:32:40.845Z,12.20
2023-07-06T04:35:10.828Z,12.20
2023-07-06T04:37:37.693Z,12.30
2023-07-06T04:40:04.917Z,12.30
2023-07-06T04:42:31.821Z,12.40
2023-07-06T04:44:58.728Z,12.40
2023-07-06T04:47:25.709Z,12.40
2023-07-06T04:49:52.674Z,12.50
2023-07-06T04:52:19.653Z,12.50
2023-07-06T04:54:46.527Z,12.50
2023-07-06T04:57:14.296Z,12.60
2023-07-06T04:59:41.318Z,12.70
2023-07-06T05:02:08.277Z,12.70
2023-07-06T05:04:35.173Z,12.80
2023-07-06T05:07:02.056Z,12.80
2023-07-06T05:09:28.986Z,12.80
2023-07-06T05:11:55.873Z,12.90
2023-07-06T05:14:22.783Z,12.90
2023-07-06T05:16:49.761Z,13.00
2023-07-06T05:19:16.729Z,13.10
2023-07-06T05:21:43.645Z,13.10
2023-07-06T05:24:10.577Z,13.20
2023-07-06T05:26:37.519Z,13.20
2023-07-06T05:29:04.417Z,13.30
2023-07-06T05:31:31.350Z,13.30
2023-07-06T05:33:58.285Z,13.40
2023-07-06T05:36:25.169Z,13.50
2023-07-06T05:38:52.209Z,13.60
2023-07-06T05:41:19.158Z,13.60
2023-07-06T05:43:46.094Z,13.60
2023-07-06T05:46:13.070Z,13.70
2023-07-06T05:48:39.976Z,13.80
2023-07-06T05:51:06.880Z,13.90
2023-07-06T05:53:33.749Z,13.90
2023-07-06T05:56:00.781Z,13.90
2023-07-06T05:58:27.737Z,14.00
2023-07-06T06:00:54.635Z,14.10
2023-07-06T06:03:21.498Z,14.10
2023-07-06T06:05:48.358Z,14.30
2023-07-06T06:08:15.256Z,14.30
2023-07-06T06:10:42.170Z,14.40
2023-07-06T06:13:09.035Z,14.50
2023-07-06T06:15:36.048Z,14.60
2023-07-06T06:18:04.216Z,14.60
2023-07-06T06:20:31.739Z,14.70
2023-07-06T06:23:00.516Z,14.80
2023-07-06T06:25:27.401Z,14.80
2023-07-06T06:27:54.350Z,15.00
2023-07-06T06:30:21.248Z,15.00
2023-07-06T06:32:48.204Z,14.90
2023-07-06T06:35:28.168Z,15.10
2023-07-06T06:37:56.227Z,15.20
2023-07-06T06:40:23.592Z,15.30
2023-07-06T06:42:50.542Z,15.40
2023-07-06T06:45:19.079Z,15.50
2023-07-06T06:47:46.191Z,15.60
2023-07-06T06:50:13.872Z,15.70
2023-07-06T06:52:41.289Z,15.90
2023-07-06T06:55:08.918Z,15.90
2023-07-06T06:57:35.804Z,16.00
2023-07-06T07:00:02.816Z,16.00
2023-07-06T07:02:29.772Z,15.90
2023-07-06T07:04:56.690Z,16.20
2023-07-06T07:07:23.584Z,16.20
2023-07-06T07:09:52.452Z,16.30
2023-07-06T07:12:19.319Z,16.40
2023-07-06T07:14:46.261Z,16.40
2023-07-06T07:17:13.618Z,16.50
2023-07-06T07:19:40.676Z,16.80
2023-07-06T07:22:07.657Z,16.90
2023-07-06T07:24:34.990Z,17.00
2023-07-06T07:27:01.992Z,17.10
2023-07-06T07:29:28.942Z,17.00
2023-07-06T07:31:56.125Z,17.30
2023-07-06T07:34:23.109Z,17.30
2023-07-06T07:36:50.132Z,17.40
2023-07-06T07:39:17.066Z,17.60
2023-07-06T07:41:44.164Z,17.60
2023-07-06T07:44:11.237Z,17.70
2023-07-06T07:46:38.231Z,17.70
2023-07-06T07:49:05.284Z,17.90
2023-07-06T07:51:32.188Z,17.50
2023-07-06T07:53:59.515Z,17.70
2023-07-06T07:56:27.930Z,17.50
2023-07-06T07:58:55.157Z,17.60
2023-07-06T08:01:24.928Z,17.80
2023-07-06T08:03:52.825Z,17.90
2023-07-06T08:06:19.988Z,18.10
2023-07-06T08:08:47.834Z,17.80
2023-07-06T08:11:19.325Z,17.80
2023-07-06T08:13:46.510Z,17.90
2023-07-06T08:16:13.936Z,18.10
2023-07-06T08:18:41.414Z,18.10
2023-07-06T08:21:29.071Z,18.00
2023-07-06T08:23:56.033Z,18.10
2023-07-06T08:26:22.929Z,18.20
2023-07-06T08:28:50.436Z,18.00
2023-07-06T08:31:21.369Z,18.40
2023-07-06T08:33:49.489Z,18.30
2023-07-06T08:36:17.814Z,18.60
2023-07-06T08:38:45.086Z,18.40
2023-07-06T08:41:44.171Z,18.70
2023-07-06T08:44:13.500Z,18.60
2023-07-06T08:46:44.038Z,18.60
2023-07-06T08:49:30.570Z,18.60
2023-07-06T08:52:04.541Z,18.70
2023-07-06T08:54:34.945Z,19.00
2023-07-06T08:57:02.717Z,19.20
2023-07-06T08:59:40.385Z,19.10
2023-07-06T09:02:19.766Z,19.10
2023-07-06T09:04:48.560Z,18.90
2023-07-06T09:07:17.503Z,19.00
2023-07-06T09:09:46.581Z,19.30
2023-07-06T09:12:24.727Z,19.40
2023-07-06T09:14:55.590Z,19.60
2023-07-06T09:17:22.875Z,19.20
2023-07-06T09:19:51.724Z,19.20
2023-07-06T09:22:19.691Z,19.40
2023-07-06T09:24:47.171Z,19.80
2023-07-06T09:27:19.707Z,20.20
2023-07-06T09:30:00.432Z,20.40
2023-07-06T09:32:27.699Z,21.70
2023-07-06T09:34:56.448Z,23.10
2023-07-06T09:37:24.568Z,22.30
2023-07-06T09:40:06.405Z,21.80
2023-07-06T09:42:34.986Z,21.50
2023-07-06T09:45:04.434Z,20.90
2023-07-06T09:47:32.953Z,20.50
2023-07-06T09:50:18.254Z,20.90
2023-07-06T09:52:45.310Z,20.50
2023-07-06T09:55:20.670Z,20.10
2023-07-06T09:57:47.732Z,20.00
2023-07-06T10:00:18.169Z,20.00
2023-07-06T10:02:47.886Z,20.30
2023-07-06T10:05:50.098Z,21.00
2023-07-06T10:08:31.942Z,21.40
2023-07-06T10:11:07.946Z,21.90
2023-07-06T10:13:38.047Z,22.30
2023-07-06T10:16:36.268Z,22.20
2023-07-06T10:19:17.276Z,22.00
2023-07-06T10:21:58.405Z,22.50
2023-07-06T10:24:54.504Z,22.30
2023-07-06T10:27:27.918Z,22.00
2023-07-06T10:30:01.496Z,22.00
2023-07-06T10:32:33.871Z,21.70
2023-07-06T10:35:12.858Z,21.40
2023-07-06T10:37:42.829Z,21.50
2023-07-06T10:40:36.093Z,21.00
2023-07-06T10:43:23.315Z,21.40
2023-07-06T10:45:51.609Z,22.10
2023-07-06T10:48:33.124Z,21.80
2023-07-06T10:51:19.217Z,21.50
2023-07-06T10:54:08.293Z,21.50
2023-07-06T10:57:05.638Z,21.60
2023-07-06T10:59:37.412Z,21.50
2023-07-06T11:02:14.966Z,21.50
2023-07-06T11:04:43.024Z,21.90
2023-07-06T11:07:29.957Z,21.80
2023-07-06T11:10:15.037Z,21.30
2023-07-06T11:12:56.952Z,21.40
2023-07-06T11:15:45.085Z,21.30
2023-07-06T11:18:33.682Z,21.10
2023-07-06T11:21:08.909Z,21.10
2023-07-06T11:23:44.065Z,21.20
2023-07-06T11:26:35.889Z,20.70
2023-07-06T11:29:06.607Z,20.80
2023-07-06T11:32:16.159Z,20.70
2023-07-06T11:35:19.405Z,20.30
2023-07-06T11:38:23.263Z,20.50
2023-07-06T11:41:30.957Z,20.50
2023-07-06T11:44:39.063Z,20.60
2023-07-06T11:47:11.966Z,20.80
2023-07-06T11:49:58.817Z,21.40
2023-07-06T11:52:40.458Z,21.60
2023-07-06T11:55:18.781Z,21.00
2023-07-06T11:58:03.500Z,21.30
2023-07-06T12:00:30.523Z,20.90
2023-07-06T12:03:09.659Z,20.80
2023-07-06T12:05:36.809Z,21.10
2023-07-06T12:08:13.445Z,21.20
2023-07-06T12:10:48.958Z,22.00
2023-07-06T12:13:27.204Z,22.70
2023-07-06T12:16:12.711Z,23.40
2023-07-06T12:18:41.128Z,22.30
2023-07-06T12:21:26.933Z,22.40
2023-07-06T12:23:53.952Z,23.20
2023-07-06T12:26:20.839Z,23.30
2023-07-06T12:28:47.818Z,23.70
2023-07-06T12:31:15.866Z,23.70
2023-07-06T12:33:44.180Z,24.50
2023-07-06T12:36:14.284Z,25.10
2023-07-06T12:38:44.827Z,24.30
2023-07-06T12:41:14.744Z,24.00
2023-07-06T12:43:43.020Z,24.20
2023-07-06T12:46:11.210Z,24.80
2023-07-06T12:48:44.079Z,25.10
2023-07-06T12:51:12.197Z,25.60
2023-07-06T12:53:39.613Z,26.00
2023-07-06T12:56:14.720Z,25.90
2023-07-06T12:58:59.486Z,25.90
2023-07-06T13:01:48.111Z,26.00
2023-07-06T13:04:15.640Z,25.90
2023-07-06T13:06:44.034Z,25.40
2023-07-06T13:09:34.018Z,25.50
2023-07-06T13:12:07.062Z,25.70
2023-07-06T13:14:36.115Z,25.20
2023-07-06T13:17:12.983Z,24.90
2023-07-06T13:19:40.023Z,24.10
2023-07-06T13:22:09.088Z,23.90
2023-07-06T13:24:36.017Z,23.40
2023-07-06T13:27:02.923Z,23.10
2023-07-06T13:29:29.824Z,23.30
2023-07-06T13:31:56.758Z,23.00
2023-07-06T13:34:23.632Z,22.80
2023-07-06T13:36:50.518Z,22.30
2023-07-06T13:39:17.442Z,22.20
2023-07-06T13:41:44.352Z,21.90
2023-07-06T13:44:11.233Z,21.70
2023-07-06T13:46:38.180Z,21.50
2023-07-06T13:49:05.281Z,21.40
2023-07-06T13:51:32.185Z,21.20
2023-07-06T13:54:00.371Z,21.00
2023-07-06T13:56:27.553Z,20.80
2023-07-06T13:58:54.859Z,20.70
2023-07-06T14:01:21.907Z,20.70
2023-07-06T14:03:48.947Z,20.60
2023-07-06T14:06:15.953Z,20.50
2023-07-06T14:08:42.878Z,20.40
2023-07-06T14:11:09.814Z,20.30
2023-07-06T14:13:36.839Z,20.50
2023-07-06T14:16:03.946Z,20.60
2023-07-06T14:18:30.897Z,21.00
2023-07-06T14:21:01.565Z,21.30
2023-07-06T14:23:29.065Z,21.30
2023-07-06T14:25:56.473Z,21.20
2023-07-06T14:28:23.718Z,20.90
2023-07-06T14:30:50.607Z,20.60
2023-07-06T14:33:19.623Z,20.40
2023-07-06T14:35:46.857Z,20.50
2023-07-06T14:38:13.762Z,20.40
2023-07-06T14:40:41.244Z,20.30
2023-07-06T14:43:08.569Z,20.20
2023-07-06T14:45:36.285Z,20.50
2023-07-06T14:48:03.364Z,20.70
2023-07-06T14:50:30.284Z,21.00
2023-07-06T14:52:57.478Z,21.00
2023-07-06T14:55:25.585Z,21.70
2023-07-06T14:57:52.557Z,22.40
2023-07-06T15:00:20.086Z,22.90
2023-07-06T15:02:51.474Z,22.90
2023-07-06T15:05:18.610Z,23.20
2023-07-06T15:07:45.731Z,23.60
2023-07-06T15:10:12.757Z,23.70
2023-07-06T15:12:39.667Z,24.20
2023-07-06T15:15:07.282Z,24.80
2023-07-06T15:17:34.212Z,25.70
2023-07-06T15:20:01.292Z,25.50
2023-07-06T15:22:28.224Z,26.00
2023-07-06T15:24:55.163Z,25.20
2023-07-06T15:27:22.050Z,24.80
2023-07-06T15:29:48.951Z,24.90
2023-07-06T15:32:15.862Z,25.40
2023-07-06T15:34:55.587Z,25.80
2023-07-06T15:37:27.269Z,26.20
2023-07-06T15:39:54.230Z,26.50
2023-07-06T15:42:21.185Z,26.30
2023-07-06T15:44:48.169Z,26.30
2023-07-06T15:47:15.083Z,26.70
2023-07-06T15:49:42.089Z,26.90
2023-07-06T15:52:09.027Z,26.00
2023-07-06T15:54:35.958Z,26.10
2023-07-06T15:57:02.953Z,26.40
2023-07-06T15:59:29.915Z,26.30
2023-07-06T16:01:57.678Z,27.00
2023-07-06T16:04:24.746Z,26.20
2023-07-06T16:06:51.974Z,25.70
2023-07-06T16:09:18.906Z,25.00
2023-07-06T16:11:46.043Z,24.50
2023-07-06T16:14:17.047Z,24.10
2023-07-06T16:16:45.496Z,23.70
2023-07-06T16:19:14.023Z,23.50
2023-07-06T16:21:41.476Z,23.10
2023-07-06T16:24:09.328Z,22.80
2023-07-06T16:26:37.059Z,22.60
2023-07-06T16:29:04.154Z,22.20
2023-07-06T16:31:33.136Z,21.90
2023-07-06T16:34:01.174Z,21.80
2023-07-06T16:36:28.285Z,21.50
2023-07-06T16:38:55.242Z,21.50
2023-07-06T16:41:22.180Z,21.10
2023-07-06T16:43:49.472Z,20.60
2023-07-06T16:46:16.787Z,19.90
2023-07-06T16:48:43.826Z,19.90
2023-07-06T16:51:10.878Z,19.40
2023-07-06T16:53:39.963Z,18.90
2023-07-06T16:56:07.282Z,18.50
2023-07-06T16:58:34.329Z,18.20
2023-07-06T17:01:11.882Z,18.00
2023-07-06T17:03:39.901Z,18.10
2023-07-06T17:06:09.981Z,17.90
2023-07-06T17:08:37.575Z,17.80
2023-07-06T17:11:11.349Z,17.60
2023-07-06T17:13:39.045Z,17.50
2023-07-06T17:16:06.183Z,17.50
2023-07-06T17:18:34.954Z,17.40
2023-07-06T17:21:04.364Z,17.30
2023-07-06T17:23:32.191Z,17.30
2023-07-06T17:25:59.897Z,17.10
2023-07-06T17:28:26.984Z,17.10
2023-07-06T17:30:53.920Z,17.00
2023-07-06T17:33:20.831Z,17.10
2023-07-06T17:35:47.768Z,17.10
2023-07-06T17:38:14.714Z,17.00
2023-07-06T17:40:41.640Z,17.00
2023-07-06T17:43:08.568Z,17.00
2023-07-06T17:45:35.576Z,17.10
2023-07-06T17:48:02.568Z,17.10
2023-07-06T17:50:29.513Z,17.10
2023-07-06T17:52:56.420Z,17.10
2023-07-06T17:55:23.317Z,17.10
2023-07-06T17:57:50.301Z,17.10
2023-07-06T18:00:17.464Z,17.30
2023-07-06T18:02:44.397Z,17.30
2023-07-06T18:05:11.322Z,17.70
2023-07-06T18:07:38.224Z,18.90
2023-07-06T18:10:05.446Z,19.60
2023-07-06T18:12:32.451Z,19.00
2023-07-06T18:14:59.329Z,19.70
2023-07-06T18:17:26.665Z,20.40
2023-07-06T18:19:53.640Z,20.90
2023-07-06T18:22:20.693Z,21.10
2023-07-06T18:24:47.666Z,21.10
2023-07-06T18:27:14.594Z,21.00
2023-07-06T18:29:41.508Z,20.30
2023-07-06T18:32:09.164Z,19.70
2023-07-06T18:34:36.268Z,19.10
2023-07-06T18:37:03.265Z,18.50
2023-07-06T18:39:30.186Z,18.20
2023-07-06T18:41:57.097Z,17.80
2023-07-06T18:44:23.974Z,17.50
2023-07-06T18:46:50.902Z,17.20
2023-07-06T18:49:17.854Z,17.00
2023-07-06T18:51:44.834Z,16.90
2023-07-06T18:54:11.769Z,16.70
2023-07-06T18:56:38.671Z,16.60
2023-07-06T18:59:05.586Z,16.50
2023-07-06T19:01:32.504Z,16.30
2023-07-06T19:03:59.500Z,16.20
2023-07-06T19:06:26.796Z,16.10
2023-07-06T19:08:53.951Z,16.00
2023-07-06T19:11:22.406Z,15.90
2023-07-06T19:13:50.840Z,15.90
2023-07-06T19:16:18.250Z,15.80
2023-07-06T19:18:45.746Z,15.60
2023-07-06T19:21:12.706Z,15.50
2023-07-06T19:23:40.648Z,15.40
2023-07-06T19:26:07.563Z,15.30
2023-07-06T19:28:34.602Z,15.30
2023-07-06T19:31:01.588Z,15.20
2023-07-06T19:33:28.648Z,15.00
2023-07-06T19:35:55.930Z,15.00
2023-07-06T19:38:23.282Z,15.00
2023-07-06T19:40:57.258Z,14.80
2023-07-06T19:43:24.833Z,14.70
2023-07-06T19:45:51.769Z,14.70
2023-07-06T19:48:20.161Z,14.60
2023-07-06T19:50:47.171Z,14.50
2023-07-06T19:53:14.283Z,14.40
2023-07-06T19:55:41.197Z,14.40
2023-07-06T19:58:08.114Z,14.30
2023-07-06T20:00:35.546Z,14.30
2023-07-06T20:03:02.674Z,14.20
2023-07-06T20:05:32.140Z,14.20
2023-07-06T20:07:58.979Z,14.10
2023-07-06T20:10:25.949Z,14.00
2023-07-06T20:12:52.881Z,13.90
2023-07-06T20:15:20.164Z,13.80
2023-07-06T20:17:47.464Z,13.80
2023-07-06T20:20:14.849Z,13.70
2023-07-06T20:22:41.811Z,13.70
2023-07-06T20:25:09.083Z,13.60
2023-07-06T20:27:35.996Z,13.60
2023-07-06T20:30:03.111Z,13.60
2023-07-06T20:32:30.044Z,13.50
2023-07-06T20:34:57.008Z,13.50
2023-07-06T20:37:23.981Z,13.40
2023-07-06T20:39:50.870Z,13.30
2023-07-06T20:42:18.767Z,13.30
2023-07-06T20:44:46.721Z,13.30
2023-07-06T20:47:13.870Z,13.10
2023-07-06T20:49:41.328Z,13.10
2023-07-06T20:52:08.576Z,13.10
2023-07-06T20:54:35.756Z,13.00
2023-07-06T20:57:02.816Z,12.90
2023-07-06T20:59:29.748Z,12.90
2023-07-06T21:01:57.967Z,12.80
2023-07-06T21:04:27.645Z,12.80
2023-07-06T21:06:54.635Z,12.80
2023-07-06T21:09:21.891Z,12.70
2023-07-06T21:11:48.772Z,12.70
2023-07-06T21:14:19.682Z,12.60
2023-07-06T21:16:47.205Z,12.60
2023-07-06T21:19:16.477Z,12.60
2023-07-06T21:21:44.146Z,12.60
2023-07-06T21:24:11.870Z,12.60
2023-07-06T21:26:39.517Z,12.50
2023-07-06T21:29:08.378Z,12.40
2023-07-06T21:31:36.249Z,12.40
2023-07-06T21:34:06.471Z,12.40
2023-07-06T21:36:33.664Z,12.40
2023-07-06T21:39:00.569Z,12.40
2023-07-06T21:41:27.617Z,12.30
2023-07-06T21:43:54.519Z,12.30
2023-07-06T21:46:21.683Z,12.30
2023-07-06T21:48:48.654Z,12.20
2023-07-06T21:51:15.745Z,12.20
2023-07-06T21:53:43.228Z,12.10
2023-07-06T21:56:12.999Z,12.10
2023-07-06T21:58:41.070Z,12.00
2023-07-06T22:01:10.473Z,12.00
2023-07-06T22:03:38.452Z,11.90
2023-07-06T22:06:12.024Z,11.90
2023-07-06T22:08:39.405Z,11.90
2023-07-06T22:11:06.664Z,11.90
2023-07-06T22:13:33.837Z,11.80
2023-07-06T22:16:01.167Z,11.80
2023-07-06T22:18:30.121Z,11.80
2023-07-06T22:20:58.085Z,11.70
2023-07-06T22:23:25.602Z,11.70
2023-07-06T22:25:53.227Z,11.70
2023-07-06T22:28:20.485Z,11.60
2023-07-06T22:31:02.190Z,11.70
2023-07-06T22:33:31.660Z,11.70
2023-07-06T22:35:58.651Z,11.50
2023-07-06T22:38:26.165Z,11.70
2023-07-06T22:40:53.191Z,11.60
2023-07-06T22:43:20.107Z,11.60
2023-07-06T22:45:47.120Z,11.60
2023-07-06T22:48:14.142Z,11.70
2023-07-06T22:50:41.104Z,11.80
2023-07-06T22:53:08.043Z,11.70
2023-07-06T22:55:35.855Z,11.60
2023-07-06T22:58:04.488Z,11.70
2023-07-06T23:00:33.130Z,11.60
2023-07-06T23:03:00.419Z,11.60
2023-07-06T23:05:27.795Z,11.50
2023-07-06T23:07:56.727Z,11.40
2023-07-06T23:10:26.304Z,11.50
2023-07-06T23:12:53.585Z,11.50
2023-07-06T23:15:20.501Z,11.50
2023-07-06T23:17:47.581Z,11.50
2023-07-06T23:20:14.737Z,11.50
2023-07-06T23:22:41.686Z,11.40
2023-07-06T23:25:14.263Z,11.40
2023-07-06T23:27:41.575Z,11.40
2023-07-06T23:30:11.585Z,11.40
2023-07-06T23:32:39.251Z,11.30
2023-07-06T23:35:06.979Z,11.30
2023-07-06T23:37:33.909Z,11.20
2023-07-06T23:40:00.809Z,11.20
2023-07-06T23:42:27.697Z,11.40
2023-07-06T23:44:54.567Z,11.30
2023-07-06T23:47:21.589Z,11.20
2023-07-06T23:49:48.602Z,11.20
2023-07-06T23:52:15.534Z,11.10
2023-07-06T23:54:42.492Z,11.10
2023-07-06T23:57:09.445Z,11.10
2023-07-06T23:59:36.361Z,11.10
